sensor_id;sensor_type;location;lat;lon;timestamp;pressure;altitude;pressure_sealevel;temperature;humidity
79586;BME280;69054;50.866;4.636;2023-09-30T00:00:42;102120.78;;;8.52;100.00
79586;BME280;69054;50.866;4.636;2023-09-30T00:03:07;102126.22;;;8.52;100.00
79586;BME280;69054;50.866;4.636;2023-09-30T00:05:33;102131.38;;;8.55;100.00
79586;BME280;69054;50.866;4.636;2023-09-30T00:07:58;102137.94;;;8.62;100.00
79586;BME280;69054;50.866;4.636;2023-09-30T00:10:24;102124.31;;;8.62;100.00
79586;BME280;69054;50.866;4.636;2023-09-30T00:12:49;102117.03;;;8.53;100.00
79586;BME280;69054;50.866;4.636;2023-09-30T00:15:14;102113.47;;;8.43;100.00
79586;BME280;69054;50.866;4.636;2023-09-30T00:17:40;102105.59;;;8.40;100.00
79586;BME280;69054;50.866;4.636;2023-09-30T00:20:06;102116.50;;;8.40;100.00
79586;BME280;69054;50.866;4.636;2023-09-30T00:22:32;102115.06;;;8.35;100.00
79586;BME280;69054;50.866;4.636;2023-09-30T00:24:58;102112.94;;;8.29;100.00
79586;BME280;69054;50.866;4.636;2023-09-30T00:27:23;102107.69;;;8.18;100.00
79586;BME280;69054;50.866;4.636;2023-09-30T00:29:49;102110.25;;;8.10;100.00
79586;BME280;69054;50.866;4.636;2023-09-30T00:32:14;102108.44;;;8.00;100.00
79586;BME280;69054;50.866;4.636;2023-09-30T00:34:39;102106.13;;;8.06;100.00
79586;BME280;69054;50.866;4.636;2023-09-30T00:37:05;102109.72;;;8.06;100.00
79586;BME280;69054;50.866;4.636;2023-09-30T00:39:32;102130.78;;;8.04;100.00
79586;BME280;69054;50.866;4.636;2023-09-30T00:41:58;102139.69;;;7.96;100.00
79586;BME280;69054;50.866;4.636;2023-09-30T00:44:25;102138.09;;;7.94;100.00
79586;BME280;69054;50.866;4.636;2023-09-30T00:46:51;102134.25;;;7.87;100.00
79586;BME280;69054;50.866;4.636;2023-09-30T00:49:17;102136.81;;;7.88;100.00
79586;BME280;69054;50.866;4.636;2023-09-30T00:51:47;102135.97;;;7.88;100.00
79586;BME280;69054;50.866;4.636;2023-09-30T00:54:12;102146.41;;;7.92;100.00
79586;BME280;69054;50.866;4.636;2023-09-30T00:56:44;102148.84;;;7.95;100.00
79586;BME280;69054;50.866;4.636;2023-09-30T00:59:11;102143.97;;;8.09;100.00
79586;BME280;69054;50.866;4.636;2023-09-30T01:01:37;102128.03;;;8.14;100.00
79586;BME280;69054;50.866;4.636;2023-09-30T01:04:03;102129.88;;;8.23;100.00
79586;BME280;69054;50.866;4.636;2023-09-30T01:06:29;102146.22;;;8.23;100.00
79586;BME280;69054;50.866;4.636;2023-09-30T01:08:55;102159.28;;;8.20;100.00
79586;BME280;69054;50.866;4.636;2023-09-30T01:11:21;102143.63;;;8.22;100.00
79586;BME280;69054;50.866;4.636;2023-09-30T01:13:47;102146.06;;;8.25;100.00
79586;BME280;69054;50.866;4.636;2023-09-30T01:16:13;102139.47;;;8.27;100.00
79586;BME280;69054;50.866;4.636;2023-09-30T01:18:39;102140.75;;;8.33;100.00
79586;BME280;69054;50.866;4.636;2023-09-30T01:21:08;102133.13;;;8.37;100.00
79586;BME280;69054;50.866;4.636;2023-09-30T01:23:34;102137.72;;;8.36;100.00
79586;BME280;69054;50.866;4.636;2023-09-30T01:26:13;102142.28;;;8.35;100.00
79586;BME280;69054;50.866;4.636;2023-09-30T01:28:39;102132.28;;;8.36;100.00
79586;BME280;69054;50.866;4.636;2023-09-30T01:31:05;102133.44;;;8.33;100.00
79586;BME280;69054;50.866;4.636;2023-09-30T01:33:31;102131.84;;;8.31;100.00
79586;BME280;69054;50.866;4.636;2023-09-30T01:35:57;102133.72;;;8.30;100.00
79586;BME280;69054;50.866;4.636;2023-09-30T01:38:23;102122.84;;;8.30;100.00
79586;BME280;69054;50.866;4.636;2023-09-30T01:40:48;102124.84;;;8.28;100.00
79586;BME280;69054;50.866;4.636;2023-09-30T01:43:14;102146.78;;;8.27;100.00
79586;BME280;69054;50.866;4.636;2023-09-30T01:45:40;102155.25;;;8.24;100.00
79586;BME280;69054;50.866;4.636;2023-09-30T01:48:06;102162.72;;;8.12;100.00
79586;BME280;69054;50.866;4.636;2023-09-30T01:50:32;102143.38;;;8.05;100.00
79586;BME280;69054;50.866;4.636;2023-09-30T01:52:57;102149.25;;;8.00;100.00
79586;BME280;69054;50.866;4.636;2023-09-30T01:55:23;102157.69;;;8.17;100.00
79586;BME280;69054;50.866;4.636;2023-09-30T01:57:48;102143.03;;;8.28;100.00
79586;BME280;69054;50.866;4.636;2023-09-30T02:00:13;102131.16;;;8.29;100.00
79586;BME280;69054;50.866;4.636;2023-09-30T02:02:39;102141.19;;;8.28;100.00
79586;BME280;69054;50.866;4.636;2023-09-30T02:05:05;102149.38;;;8.28;100.00
79586;BME280;69054;50.866;4.636;2023-09-30T02:07:34;102160.41;;;8.27;100.00
79586;BME280;69054;50.866;4.636;2023-09-30T02:10:00;102159.53;;;8.26;100.00
79586;BME280;69054;50.866;4.636;2023-09-30T02:12:27;102157.84;;;8.25;100.00
79586;BME280;69054;50.866;4.636;2023-09-30T02:14:53;102153.97;;;8.18;100.00
79586;BME280;69054;50.866;4.636;2023-09-30T02:17:19;102157.97;;;8.14;100.00
79586;BME280;69054;50.866;4.636;2023-09-30T02:19:44;102165.00;;;8.07;100.00
79586;BME280;69054;50.866;4.636;2023-09-30T02:22:10;102165.31;;;8.04;100.00
79586;BME280;69054;50.866;4.636;2023-09-30T02:24:35;102165.16;;;8.15;100.00
79586;BME280;69054;50.866;4.636;2023-09-30T02:27:01;102155.56;;;8.11;100.00
79586;BME280;69054;50.866;4.636;2023-09-30T02:29:26;102166.47;;;8.01;100.00
79586;BME280;69054;50.866;4.636;2023-09-30T02:31:51;102156.16;;;7.85;100.00
79586;BME280;69054;50.866;4.636;2023-09-30T02:34:19;102155.44;;;7.73;100.00
79586;BME280;69054;50.866;4.636;2023-09-30T02:36:45;102154.59;;;7.63;100.00
79586;BME280;69054;50.866;4.636;2023-09-30T02:39:10;102147.72;;;7.59;100.00
79586;BME280;69054;50.866;4.636;2023-09-30T02:41:36;102150.59;;;7.57;100.00
79586;BME280;69054;50.866;4.636;2023-09-30T02:44:03;102155.28;;;7.55;100.00
79586;BME280;69054;50.866;4.636;2023-09-30T02:46:28;102154.72;;;7.52;100.00
79586;BME280;69054;50.866;4.636;2023-09-30T02:48:54;102159.63;;;7.48;100.00
79586;BME280;69054;50.866;4.636;2023-09-30T02:51:19;102162.75;;;7.53;100.00
79586;BME280;69054;50.866;4.636;2023-09-30T02:53:45;102163.88;;;7.51;100.00
79586;BME280;69054;50.866;4.636;2023-09-30T02:56:13;102176.34;;;7.53;100.00
79586;BME280;69054;50.866;4.636;2023-09-30T02:58:39;102175.78;;;7.50;100.00
79586;BME280;69054;50.866;4.636;2023-09-30T03:01:05;102159.16;;;7.43;100.00
79586;BME280;69054;50.866;4.636;2023-09-30T03:03:32;102144.16;;;7.39;100.00
79586;BME280;69054;50.866;4.636;2023-09-30T03:05:59;102150.44;;;7.39;100.00
79586;BME280;69054;50.866;4.636;2023-09-30T03:08:26;102146.13;;;7.37;100.00
79586;BME280;69054;50.866;4.636;2023-09-30T03:10:51;102148.56;;;7.40;100.00
79586;BME280;69054;50.866;4.636;2023-09-30T03:13:17;102149.00;;;7.45;100.00
79586;BME280;69054;50.866;4.636;2023-09-30T03:15:44;102153.28;;;7.47;100.00
79586;BME280;69054;50.866;4.636;2023-09-30T03:18:09;102144.44;;;7.45;100.00
79586;BME280;69054;50.866;4.636;2023-09-30T03:20:35;102151.44;;;7.48;100.00
79586;BME280;69054;50.866;4.636;2023-09-30T03:23:05;102149.44;;;7.50;100.00
79586;BME280;69054;50.866;4.636;2023-09-30T03:25:31;102144.44;;;7.45;100.00
79586;BME280;69054;50.866;4.636;2023-09-30T03:27:57;102134.69;;;7.43;100.00
79586;BME280;69054;50.866;4.636;2023-09-30T03:30:23;102147.72;;;7.49;100.00
79586;BME280;69054;50.866;4.636;2023-09-30T03:32:49;102150.31;;;7.60;100.00
79586;BME280;69054;50.866;4.636;2023-09-30T03:35:15;102155.00;;;7.58;100.00
79586;BME280;69054;50.866;4.636;2023-09-30T03:37:43;102165.06;;;7.48;100.00
79586;BME280;69054;50.866;4.636;2023-09-30T03:40:08;102156.28;;;7.44;100.00
79586;BME280;69054;50.866;4.636;2023-09-30T03:42:40;102147.84;;;7.47;100.00
79586;BME280;69054;50.866;4.636;2023-09-30T03:45:08;102140.56;;;7.48;100.00
79586;BME280;69054;50.866;4.636;2023-09-30T03:47:35;102129.84;;;7.46;100.00
79586;BME280;69054;50.866;4.636;2023-09-30T03:50:01;102136.00;;;7.39;100.00
79586;BME280;69054;50.866;4.636;2023-09-30T03:52:29;102141.13;;;7.32;100.00
79586;BME280;69054;50.866;4.636;2023-09-30T03:54:55;102140.69;;;7.27;100.00
79586;BME280;69054;50.866;4.636;2023-09-30T03:57:20;102143.97;;;7.21;100.00
79586;BME280;69054;50.866;4.636;2023-09-30T03:59:45;102152.09;;;7.11;100.00
79586;BME280;69054;50.866;4.636;2023-09-30T04:02:14;102147.94;;;7.07;100.00
79586;BME280;69054;50.866;4.636;2023-09-30T04:04:40;102142.06;;;7.02;100.00
79586;BME280;69054;50.866;4.636;2023-09-30T04:07:05;102137.34;;;7.04;100.00
79586;BME280;69054;50.866;4.636;2023-09-30T04:09:32;102140.94;;;7.04;100.00
79586;BME280;69054;50.866;4.636;2023-09-30T04:11:58;102140.75;;;6.96;100.00
79586;BME280;69054;50.866;4.636;2023-09-30T04:14:26;102140.47;;;6.89;100.00
79586;BME280;69054;50.866;4.636;2023-09-30T04:16:52;102140.75;;;6.86;100.00
79586;BME280;69054;50.866;4.636;2023-09-30T04:19:19;102131.13;;;6.82;100.00
79586;BME280;69054;50.866;4.636;2023-09-30T04:21:45;102124.25;;;6.78;100.00
79586;BME280;69054;50.866;4.636;2023-09-30T04:24:10;102126.13;;;6.78;100.00
79586;BME280;69054;50.866;4.636;2023-09-30T04:26:36;102123.69;;;6.74;100.00
79586;BME280;69054;50.866;4.636;2023-09-30T04:29:02;102126.97;;;6.78;100.00
79586;BME280;69054;50.866;4.636;2023-09-30T04:31:35;102127.44;;;6.83;100.00
79586;BME280;69054;50.866;4.636;2023-09-30T04:34:01;102131.03;;;6.93;100.00
79586;BME280;69054;50.866;4.636;2023-09-30T04:36:27;102145.47;;;6.94;100.00
79586;BME280;69054;50.866;4.636;2023-09-30T04:38:52;102152.03;;;6.91;100.00
79586;BME280;69054;50.866;4.636;2023-09-30T04:41:17;102140.19;;;6.92;100.00
79586;BME280;69054;50.866;4.636;2023-09-30T04:43:44;102139.06;;;6.95;100.00
79586;BME280;69054;50.866;4.636;2023-09-30T04:46:09;102137.19;;;6.96;100.00
79586;BME280;69054;50.866;4.636;2023-09-30T04:48:37;102142.75;;;6.94;100.00
79586;BME280;69054;50.866;4.636;2023-09-30T04:51:06;102147.22;;;6.95;100.00
79586;BME280;69054;50.866;4.636;2023-09-30T04:53:32;102144.34;;;7.06;100.00
79586;BME280;69054;50.866;4.636;2023-09-30T04:55:59;102147.69;;;7.20;100.00
79586;BME280;69054;50.866;4.636;2023-09-30T04:58:24;102148.72;;;7.28;100.00
79586;BME280;69054;50.866;4.636;2023-09-30T05:00:50;102154.84;;;7.31;100.00
79586;BME280;69054;50.866;4.636;2023-09-30T05:03:15;102145.72;;;7.32;100.00
79586;BME280;69054;50.866;4.636;2023-09-30T05:05:41;102154.16;;;7.28;100.00
79586;BME280;69054;50.866;4.636;2023-09-30T05:08:07;102151.72;;;7.25;100.00
79586;BME280;69054;50.866;4.636;2023-09-30T05:10:32;102141.13;;;7.22;100.00
79586;BME280;69054;50.866;4.636;2023-09-30T05:12:58;102145.25;;;7.17;100.00
79586;BME280;69054;50.866;4.636;2023-09-30T05:15:24;102153.81;;;7.12;100.00
79586;BME280;69054;50.866;4.636;2023-09-30T05:17:50;102146.94;;;7.08;100.00
79586;BME280;69054;50.866;4.636;2023-09-30T05:20:16;102149.94;;;7.05;100.00
79586;BME280;69054;50.866;4.636;2023-09-30T05:22:45;102160.38;;;7.00;100.00
79586;BME280;69054;50.866;4.636;2023-09-30T05:25:14;102162.50;;;6.96;100.00
79586;BME280;69054;50.866;4.636;2023-09-30T05:27:46;102160.34;;;6.90;100.00
79586;BME280;69054;50.866;4.636;2023-09-30T05:30:14;102161.22;;;6.90;100.00
79586;BME280;69054;50.866;4.636;2023-09-30T05:32:41;102159.63;;;6.98;100.00
79586;BME280;69054;50.866;4.636;2023-09-30T05:35:06;102157.94;;;6.97;100.00
79586;BME280;69054;50.866;4.636;2023-09-30T05:37:42;102162.06;;;6.91;100.00
79586;BME280;69054;50.866;4.636;2023-09-30T05:40:08;102147.75;;;6.89;100.00
79586;BME280;69054;50.866;4.636;2023-09-30T05:42:45;102153.06;;;6.90;100.00
79586;BME280;69054;50.866;4.636;2023-09-30T05:45:11;102169.53;;;6.99;100.00
79586;BME280;69054;50.866;4.636;2023-09-30T05:47:38;102163.09;;;7.00;100.00
79586;BME280;69054;50.866;4.636;2023-09-30T05:50:04;102166.22;;;6.95;100.00
79586;BME280;69054;50.866;4.636;2023-09-30T05:52:33;102177.81;;;6.97;100.00
79586;BME280;69054;50.866;4.636;2023-09-30T05:54:58;102178.94;;;6.95;100.00
79586;BME280;69054;50.866;4.636;2023-09-30T05:57:26;102173.22;;;6.98;100.00
79586;BME280;69054;50.866;4.636;2023-09-30T05:59:51;102169.53;;;6.99;100.00
79586;BME280;69054;50.866;4.636;2023-09-30T06:02:17;102176.41;;;7.03;100.00
79586;BME280;69054;50.866;4.636;2023-09-30T06:04:43;102173.56;;;7.14;100.00
79586;BME280;69054;50.866;4.636;2023-09-30T06:07:09;102177.88;;;7.26;100.00
79586;BME280;69054;50.866;4.636;2023-09-30T06:09:35;102181.34;;;7.38;100.00
79586;BME280;69054;50.866;4.636;2023-09-30T06:12:00;102170.63;;;7.56;100.00
79586;BME280;69054;50.866;4.636;2023-09-30T06:14:28;102166.78;;;7.78;100.00
79586;BME280;69054;50.866;4.636;2023-09-30T06:16:56;102171.47;;;7.96;100.00
79586;BME280;69054;50.866;4.636;2023-09-30T06:19:21;102154.25;;;8.15;100.00
79586;BME280;69054;50.866;4.636;2023-09-30T06:21:46;102150.75;;;8.32;100.00
79586;BME280;69054;50.866;4.636;2023-09-30T06:24:12;102159.19;;;8.59;100.00
79586;BME280;69054;50.866;4.636;2023-09-30T06:26:37;102169.09;;;8.87;100.00
79586;BME280;69054;50.866;4.636;2023-09-30T06:29:03;102176.97;;;9.18;100.00
79586;BME280;69054;50.866;4.636;2023-09-30T06:31:28;102183.88;;;9.40;100.00
79586;BME280;69054;50.866;4.636;2023-09-30T06:33:54;102195.97;;;9.56;100.00
79586;BME280;69054;50.866;4.636;2023-09-30T06:36:23;102202.84;;;9.60;100.00
79586;BME280;69054;50.866;4.636;2023-09-30T06:38:49;102195.41;;;9.88;100.00
79586;BME280;69054;50.866;4.636;2023-09-30T06:41:18;102193.03;;;10.29;100.00
79586;BME280;69054;50.866;4.636;2023-09-30T06:43:44;102205.09;;;10.71;100.00
79586;BME280;69054;50.866;4.636;2023-09-30T06:46:10;102210.59;;;11.06;100.00
79586;BME280;69054;50.866;4.636;2023-09-30T06:48:36;102218.75;;;11.40;100.00
79586;BME280;69054;50.866;4.636;2023-09-30T06:51:02;102238.84;;;11.74;100.00
79586;BME280;69054;50.866;4.636;2023-09-30T06:53:28;102237.34;;;11.87;100.00
79586;BME280;69054;50.866;4.636;2023-09-30T06:55:53;102229.16;;;12.04;100.00
79586;BME280;69054;50.866;4.636;2023-09-30T06:58:18;102233.97;;;12.10;100.00
79586;BME280;69054;50.866;4.636;2023-09-30T07:00:50;102250.38;;;12.18;100.00
79586;BME280;69054;50.866;4.636;2023-09-30T07:03:19;102255.72;;;12.45;100.00
79586;BME280;69054;50.866;4.636;2023-09-30T07:05:47;102256.53;;;12.70;100.00
79586;BME280;69054;50.866;4.636;2023-09-30T07:08:18;102250.34;;;12.84;100.00
79586;BME280;69054;50.866;4.636;2023-09-30T07:10:44;102251.75;;;13.20;100.00
79586;BME280;69054;50.866;4.636;2023-09-30T07:13:12;102274.81;;;13.50;100.00
79586;BME280;69054;50.866;4.636;2023-09-30T07:15:37;102272.88;;;13.90;100.00
79586;BME280;69054;50.866;4.636;2023-09-30T07:18:03;102279.59;;;14.11;94.07
79586;BME280;69054;50.866;4.636;2023-09-30T07:20:29;102279.38;;;14.20;96.51
79586;BME280;69054;50.866;4.636;2023-09-30T07:23:01;102271.53;;;14.09;93.57
79586;BME280;69054;50.866;4.636;2023-09-30T07:25:27;102272.34;;;13.95;93.65
79586;BME280;69054;50.866;4.636;2023-09-30T07:27:52;102270.81;;;13.92;96.55
79586;BME280;69054;50.866;4.636;2023-09-30T07:30:18;102275.41;;;14.23;95.54
79586;BME280;69054;50.866;4.636;2023-09-30T07:32:44;102273.34;;;14.63;94.44
79586;BME280;69054;50.866;4.636;2023-09-30T07:35:11;102273.78;;;14.90;92.39
79586;BME280;69054;50.866;4.636;2023-09-30T07:37:37;102278.63;;;15.03;90.21
79586;BME280;69054;50.866;4.636;2023-09-30T07:40:03;102282.59;;;15.45;90.83
79586;BME280;69054;50.866;4.636;2023-09-30T07:42:30;102284.16;;;15.69;87.67
79586;BME280;69054;50.866;4.636;2023-09-30T07:44:55;102292.25;;;15.56;85.79
79586;BME280;69054;50.866;4.636;2023-09-30T07:47:21;102298.72;;;15.48;87.53
79586;BME280;69054;50.866;4.636;2023-09-30T07:49:46;102302.63;;;15.54;88.70
79586;BME280;69054;50.866;4.636;2023-09-30T07:52:12;102295.97;;;15.63;87.14
79586;BME280;69054;50.866;4.636;2023-09-30T07:54:37;102294.16;;;15.70;84.29
79586;BME280;69054;50.866;4.636;2023-09-30T07:57:02;102293.28;;;15.85;86.75
79586;BME280;69054;50.866;4.636;2023-09-30T07:59:28;102301.03;;;16.39;86.02
79586;BME280;69054;50.866;4.636;2023-09-30T08:01:53;102291.09;;;16.66;83.45
79586;BME280;69054;50.866;4.636;2023-09-30T08:04:19;102291.72;;;16.40;82.54
79586;BME280;69054;50.866;4.636;2023-09-30T08:06:44;102286.41;;;16.39;81.30
79586;BME280;69054;50.866;4.636;2023-09-30T08:09:13;102298.16;;;16.47;83.58
79586;BME280;69054;50.866;4.636;2023-09-30T08:11:38;102292.28;;;17.07;78.98
79586;BME280;69054;50.866;4.636;2023-09-30T08:14:04;102295.44;;;17.04;80.19
79586;BME280;69054;50.866;4.636;2023-09-30T08:16:37;102292.91;;;17.44;80.45
79586;BME280;69054;50.866;4.636;2023-09-30T08:19:03;102287.47;;;17.64;78.01
79586;BME280;69054;50.866;4.636;2023-09-30T08:21:29;102295.75;;;18.26;77.12
79586;BME280;69054;50.866;4.636;2023-09-30T08:23:56;102300.44;;;18.52;75.78
79586;BME280;69054;50.866;4.636;2023-09-30T08:26:22;102306.66;;;18.94;73.56
79586;BME280;69054;50.866;4.636;2023-09-30T08:28:47;102305.56;;;18.89;70.73
79586;BME280;69054;50.866;4.636;2023-09-30T08:31:13;102299.38;;;18.80;72.61
79586;BME280;69054;50.866;4.636;2023-09-30T08:33:39;102297.03;;;19.04;72.31
79586;BME280;69054;50.866;4.636;2023-09-30T08:36:06;102291.28;;;19.05;71.77
79586;BME280;69054;50.866;4.636;2023-09-30T08:38:40;102292.38;;;18.64;73.12
79586;BME280;69054;50.866;4.636;2023-09-30T08:41:06;102291.50;;;18.84;73.30
79586;BME280;69054;50.866;4.636;2023-09-30T08:43:38;102298.47;;;19.26;70.50
79586;BME280;69054;50.866;4.636;2023-09-30T08:46:04;102292.31;;;19.24;71.24
79586;BME280;69054;50.866;4.636;2023-09-30T08:48:32;102286.22;;;19.61;71.11
79586;BME280;69054;50.866;4.636;2023-09-30T08:50:59;102289.53;;;19.83;69.03
79586;BME280;69054;50.866;4.636;2023-09-30T08:53:25;102284.94;;;20.34;67.18
79586;BME280;69054;50.866;4.636;2023-09-30T08:55:55;102281.19;;;20.47;68.71
79586;BME280;69054;50.866;4.636;2023-09-30T08:58:26;102290.47;;;20.91;66.02
79586;BME280;69054;50.866;4.636;2023-09-30T09:00:52;102296.59;;;20.74;65.24
79586;BME280;69054;50.866;4.636;2023-09-30T09:03:19;102296.50;;;20.88;66.24
79586;BME280;69054;50.866;4.636;2023-09-30T09:05:45;102294.53;;;21.32;65.33
79586;BME280;69054;50.866;4.636;2023-09-30T09:08:10;102303.03;;;21.74;61.66
79586;BME280;69054;50.866;4.636;2023-09-30T09:10:35;102297.75;;;21.29;63.59
79586;BME280;69054;50.866;4.636;2023-09-30T09:13:13;102298.84;;;21.09;63.33
79586;BME280;69054;50.866;4.636;2023-09-30T09:15:38;102300.75;;;20.59;65.04
79586;BME280;69054;50.866;4.636;2023-09-30T09:18:04;102308.09;;;21.03;65.84
79586;BME280;69054;50.866;4.636;2023-09-30T09:20:29;102309.75;;;21.04;64.55
79586;BME280;69054;50.866;4.636;2023-09-30T09:22:55;102322.69;;;21.91;62.96
79586;BME280;69054;50.866;4.636;2023-09-30T09:25:23;102320.63;;;22.17;60.13
79586;BME280;69054;50.866;4.636;2023-09-30T09:27:49;102330.44;;;21.89;61.05
79586;BME280;69054;50.866;4.636;2023-09-30T09:30:25;102332.81;;;21.30;61.31
79586;BME280;69054;50.866;4.636;2023-09-30T09:33:03;102335.84;;;22.14;59.09
79586;BME280;69054;50.866;4.636;2023-09-30T09:35:30;102337.78;;;22.44;57.66
79586;BME280;69054;50.866;4.636;2023-09-30T09:37:58;102343.97;;;22.46;58.18
79586;BME280;69054;50.866;4.636;2023-09-30T09:40:29;102340.97;;;22.29;57.43
79586;BME280;69054;50.866;4.636;2023-09-30T09:42:55;102321.59;;;22.53;56.50
79586;BME280;69054;50.866;4.636;2023-09-30T09:45:23;102328.19;;;23.06;54.66
79586;BME280;69054;50.866;4.636;2023-09-30T09:47:48;102333.41;;;23.14;55.11
79586;BME280;69054;50.866;4.636;2023-09-30T09:50:14;102332.53;;;23.37;53.90
79586;BME280;69054;50.866;4.636;2023-09-30T09:52:41;102328.41;;;22.93;55.44
79586;BME280;69054;50.866;4.636;2023-09-30T09:55:10;102339.59;;;23.81;53.54
79586;BME280;69054;50.866;4.636;2023-09-30T09:57:37;102335.44;;;23.54;53.08
79586;BME280;69054;50.866;4.636;2023-09-30T10:00:04;102344.06;;;23.53;52.16
79586;BME280;69054;50.866;4.636;2023-09-30T10:02:40;102340.06;;;23.25;53.04
79586;BME280;69054;50.866;4.636;2023-09-30T10:05:06;102346.03;;;23.81;52.14
79586;BME280;69054;50.866;4.636;2023-09-30T10:07:54;102339.59;;;23.16;55.93
79586;BME280;69054;50.866;4.636;2023-09-30T10:10:23;102343.50;;;23.68;52.66
79586;BME280;69054;50.866;4.636;2023-09-30T10:12:50;102349.72;;;24.11;51.34
79586;BME280;69054;50.866;4.636;2023-09-30T10:18:00;102358.25;;;23.92;49.11
79586;BME280;69054;50.866;4.636;2023-09-30T10:20:30;102352.59;;;22.57;52.33
79586;BME280;69054;50.866;4.636;2023-09-30T10:25:43;102351.63;;;21.09;57.25
79586;BME280;69054;50.866;4.636;2023-09-30T10:36:38;102339.31;;;25.59;44.73
79586;BME280;69054;50.866;4.636;2023-09-30T10:39:05;102343.06;;;26.41;44.02
79586;BME280;69054;50.866;4.636;2023-09-30T10:46:54;102334.34;;;25.88;43.80
79586;BME280;69054;50.866;4.636;2023-09-30T10:51:55;102316.97;;;25.03;46.34
79586;BME280;69054;50.866;4.636;2023-09-30T10:54:28;102317.69;;;25.54;43.87
79586;BME280;69054;50.866;4.636;2023-09-30T10:56:55;102318.59;;;24.19;46.14
79586;BME280;69054;50.866;4.636;2023-09-30T10:59:24;102308.88;;;22.69;48.23
79586;BME280;69054;50.866;4.636;2023-09-30T11:01:51;102311.50;;;21.79;52.36
79586;BME280;69054;50.866;4.636;2023-09-30T11:04:17;102306.50;;;22.73;50.35
79586;BME280;69054;50.866;4.636;2023-09-30T11:06:45;102307.81;;;24.39;44.35
79586;BME280;69054;50.866;4.636;2023-09-30T11:09:19;102322.66;;;25.96;41.79
79586;BME280;69054;50.866;4.636;2023-09-30T11:11:47;102309.88;;;25.78;42.99
79586;BME280;69054;50.866;4.636;2023-09-30T11:14:26;102316.53;;;26.21;41.73
79586;BME280;69054;50.866;4.636;2023-09-30T11:16:55;102307.56;;;26.84;40.33
79586;BME280;69054;50.866;4.636;2023-09-30T11:19:22;102316.81;;;27.27;39.82
79586;BME280;69054;50.866;4.636;2023-09-30T11:21:49;102308.53;;;27.05;39.56
79586;BME280;69054;50.866;4.636;2023-09-30T11:24:15;102312.72;;;27.46;39.58
79586;BME280;69054;50.866;4.636;2023-09-30T11:26:40;102312.63;;;27.30;38.92
79586;BME280;69054;50.866;4.636;2023-09-30T11:29:09;102301.84;;;27.12;39.60
79586;BME280;69054;50.866;4.636;2023-09-30T11:31:43;102316.25;;;27.78;38.04
79586;BME280;69054;50.866;4.636;2023-09-30T11:34:10;102299.97;;;26.80;39.62
79586;BME280;69054;50.866;4.636;2023-09-30T11:36:38;102288.50;;;24.89;44.13
79586;BME280;69054;50.866;4.636;2023-09-30T11:39:28;102284.22;;;24.01;47.43
79586;BME280;69054;50.866;4.636;2023-09-30T11:41:55;102287.38;;;25.46;45.06
79586;BME280;69054;50.866;4.636;2023-09-30T11:44:25;102286.44;;;24.62;46.31
79586;BME280;69054;50.866;4.636;2023-09-30T11:46:58;102287.69;;;22.80;50.10
79586;BME280;69054;50.866;4.636;2023-09-30T11:49:37;102269.28;;;22.67;52.10
79586;BME280;69054;50.866;4.636;2023-09-30T11:52:13;102260.88;;;23.50;50.87
79586;BME280;69054;50.866;4.636;2023-09-30T11:54:43;102252.34;;;24.82;45.92
79586;BME280;69054;50.866;4.636;2023-09-30T11:57:10;102260.84;;;25.09;45.46
79586;BME280;69054;50.866;4.636;2023-09-30T11:59:39;102251.22;;;25.22;43.99
79586;BME280;69054;50.866;4.636;2023-09-30T12:02:07;102245.88;;;24.59;45.97
79586;BME280;69054;50.866;4.636;2023-09-30T12:04:34;102247.81;;;25.59;44.04
79586;BME280;69054;50.866;4.636;2023-09-30T12:06:59;102238.69;;;26.61;42.07
79586;BME280;69054;50.866;4.636;2023-09-30T12:09:25;102238.53;;;27.31;39.34
79586;BME280;69054;50.866;4.636;2023-09-30T12:11:53;102236.06;;;26.82;38.30
79586;BME280;69054;50.866;4.636;2023-09-30T12:14:22;102237.03;;;26.65;39.72
79586;BME280;69054;50.866;4.636;2023-09-30T12:16:47;102247.25;;;25.35;42.44
79586;BME280;69054;50.866;4.636;2023-09-30T12:19:14;102234.16;;;24.29;45.91
79586;BME280;69054;50.866;4.636;2023-09-30T12:21:41;102236.09;;;23.82;46.92
79586;BME280;69054;50.866;4.636;2023-09-30T12:24:07;102234.06;;;23.49;47.18
79586;BME280;69054;50.866;4.636;2023-09-30T12:26:34;102234.16;;;22.42;49.43
79586;BME280;69054;50.866;4.636;2023-09-30T12:29:00;102234.84;;;22.26;51.02
79586;BME280;69054;50.866;4.636;2023-09-30T12:31:25;102238.50;;;21.96;51.57
79586;BME280;69054;50.866;4.636;2023-09-30T12:33:51;102230.28;;;21.89;51.53
79586;BME280;69054;50.866;4.636;2023-09-30T12:36:21;102236.84;;;24.06;47.02
79586;BME280;69054;50.866;4.636;2023-09-30T12:38:47;102233.31;;;25.90;40.54
79586;BME280;69054;50.866;4.636;2023-09-30T12:41:13;102225.00;;;25.28;41.53
79586;BME280;69054;50.866;4.636;2023-09-30T12:43:40;102224.91;;;25.90;39.98
79586;BME280;69054;50.866;4.636;2023-09-30T12:46:08;102224.66;;;26.94;38.06
79586;BME280;69054;50.866;4.636;2023-09-30T12:48:33;102228.13;;;28.10;35.90
79586;BME280;69054;50.866;4.636;2023-09-30T12:50:59;102222.78;;;28.45;35.50
79586;BME280;69054;50.866;4.636;2023-09-30T12:53:25;102224.59;;;27.41;36.34
79586;BME280;69054;50.866;4.636;2023-09-30T12:55:50;102230.25;;;27.47;35.06
79586;BME280;69054;50.866;4.636;2023-09-30T12:58:15;102225.94;;;27.29;36.24
79586;BME280;69054;50.866;4.636;2023-09-30T13:00:41;102226.91;;;26.97;36.58
79586;BME280;69054;50.866;4.636;2023-09-30T13:03:07;102223.47;;;26.47;38.48
79586;BME280;69054;50.866;4.636;2023-09-30T13:05:33;102223.41;;;26.74;36.07
79586;BME280;69054;50.866;4.636;2023-09-30T13:07:58;102227.16;;;27.48;36.00
79586;BME280;69054;50.866;4.636;2023-09-30T13:10:24;102226.31;;;27.63;35.41